No particular awareness of the weather is required.    There are no Weather-warnings




My webcam more information My webcam


Meteosat more information Meteosat


Radar de pluja more information rain snow radar


Visita la nostra xarxa de llocs de meteo:

Template documentation
and downloads

And another site



Nearby METAR Reports

   
LERS - Reus
Actualitzacio: 19-09-2018 20:30
Nuvols dispersos  
Nuvols dispersos  
   Vent: SSW 5.6 km/h
Vent: SSW 5.6 km/h
Temperatura: 23°C
Punt de rosada: 21°C
Humitat: 89%
Barometre: 1020 hPa
Nuvols: Nuvols dispersos
Visibilitat: More than 10 km
Cloud details: Nuvols dispersos 2500 ft
LERS 191830Z 21003KT 9999 FEW025 23/21 Q1020
LEDA - Lleida
Actualitzacio: 19-09-2018 20:30
Clar  
Clar  
   Vent: calma
Vent: calma
Temperatura: 24°C
Punt de rosada: 15°C
Humitat: 57%
Barometre: 1020 hPa
Nuvols: Clar
Visibilitat: More than 10 km
Cloud details: Clar
LEDA 191830Z AUTO 00000KT 9999 NCD 24/15 Q1020
LEGE - Girona
Actualitzacio: 19-09-2018 20:30
Clar  
Clar  
   Vent: SW 5.6 km/h
Vent: SW 5.6 km/h
Temperatura: 22°C
Punt de rosada: 19°C
Humitat: 83%
Barometre: 1020 hPa
Visibilitat: More than 10 km
Cloud details: Clar
LEGE 191830Z 23003KT 200V260 CAVOK 22/19 Q1020
LEMH - Mahon
Actualitzacio: 19-09-2018 20:30
Nuvols dispersos  
Nuvols dispersos  
   Vent: NNE 11.1 km/h
Vent: NNE 11.1 km/h
Barometre: 1019 hPa
Nuvols: Nuvols dispersos
Visibilitat: More than 10 km
Cloud details: Nuvols dispersos 1500 ft
LEMH 191830Z 02006KT 9999 FEW015 ///// Q1019
LFMK - Carcassonne
Actualitzacio: 19-09-2018 20:30
Clar  
Clar  
   Vent: West 5.6 km/h
Vent: West 5.6 km/h
Temperatura: 25°C
Punt de rosada: 13°C
Humitat: 47%
Barometre: 1019 hPa
Visibilitat: More than 10 km
Cloud details: Clar
LFMK 191830Z AUTO 26003KT 230V290 CAVOK 25/13 Q1019
 

Guio original per  Saratoga-weather.org Adaptat per a la plantilla per  Weerstation Leuven

Trobareu la nostra informacio del temps tambe a:

European Weather Network

WeatherCloud

Weather Underground

Meteoclimatic

Equip utilitzat:

Weather-program
Weather Display

Weather-server
RaspberryPI 2

Proveidor

Weather Display

RaspberryPI 2